createdAt,value
2022-11-27T00:01:25.454Z,5.50
2022-11-27T00:03:54.821Z,5.30
2022-11-27T00:06:25.615Z,4.87
2022-11-27T00:08:57.087Z,4.40
2022-11-27T00:11:27.171Z,4.63
2022-11-27T00:13:55.574Z,4.63
2022-11-27T00:16:24.720Z,4.63
2022-11-27T00:18:53.443Z,4.30
2022-11-27T00:21:24.305Z,4.17
2022-11-27T00:23:54.464Z,4.20
2022-11-27T00:26:24.291Z,5.50
2022-11-27T00:28:53.612Z,3.70
2022-11-27T00:31:27.101Z,4.30
2022-11-27T00:33:55.617Z,4.17
2022-11-27T00:36:24.409Z,4.30
2022-11-27T00:38:54.298Z,4.27
2022-11-27T00:41:24.478Z,3.63
2022-11-27T00:43:53.938Z,3.90
2022-11-27T00:46:28.008Z,4.00
2022-11-27T00:48:56.817Z,4.07
2022-11-27T00:51:26.090Z,4.20
2022-11-27T00:53:56.712Z,3.17
2022-11-27T00:56:26.737Z,3.57
2022-11-27T00:58:55.377Z,3.77
2022-11-27T01:01:25.042Z,4.40
2022-11-27T01:03:53.396Z,4.27
2022-11-27T01:06:22.230Z,4.50
2022-11-27T01:08:51.042Z,5.60
2022-11-27T01:11:22.468Z,5.03
2022-11-27T01:13:50.649Z,5.87
2022-11-27T01:16:21.011Z,5.33
2022-11-27T01:18:50.930Z,4.70
2022-11-27T01:21:21.106Z,4.90
2022-11-27T01:23:50.673Z,5.87
2022-11-27T01:26:21.422Z,5.30
2022-11-27T01:28:52.510Z,5.67
2022-11-27T01:31:23.410Z,6.03
2022-11-27T01:33:55.157Z,6.00
2022-11-27T01:36:23.529Z,7.33
2022-11-27T01:38:52.367Z,6.40
2022-11-27T01:41:25.924Z,6.20
2022-11-27T01:43:57.608Z,6.57
2022-11-27T01:46:40.677Z,6.70
2022-11-27T01:49:29.239Z,6.97
2022-11-27T01:52:02.407Z,6.53
2022-11-27T01:54:34.355Z,7.30
2022-11-27T01:57:09.076Z,7.03
2022-11-27T01:59:37.493Z,5.90
2022-11-27T02:02:05.958Z,7.67
2022-11-27T02:04:34.223Z,8.20
2022-11-27T02:07:02.673Z,7.07
2022-11-27T02:09:31.677Z,6.30
2022-11-27T02:12:10.419Z,6.17
2022-11-27T02:14:50.157Z,5.77
2022-11-27T02:17:22.311Z,7.07
2022-11-27T02:20:12.085Z,6.50
2022-11-27T02:22:57.779Z,5.50
2022-11-27T02:25:34.871Z,6.40
2022-11-27T02:28:22.590Z,6.10
2022-11-27T02:30:57.947Z,5.50
2022-11-27T02:33:27.199Z,4.23
2022-11-27T02:36:00.761Z,3.93
2022-11-27T02:38:34.996Z,4.37
2022-11-27T02:41:08.751Z,4.70
2022-11-27T02:43:40.382Z,4.67
2022-11-27T02:46:12.088Z,4.77
2022-11-27T02:48:47.000Z,4.80
2022-11-27T02:51:18.374Z,4.07
2022-11-27T02:53:51.003Z,6.30
2022-11-27T02:56:23.359Z,5.97
2022-11-27T02:58:54.757Z,6.60
2022-11-27T03:01:25.961Z,7.43
2022-11-27T03:03:58.186Z,5.67
2022-11-27T03:06:32.117Z,7.47
2022-11-27T03:09:06.245Z,7.43
2022-11-27T03:11:35.243Z,7.87
2022-11-27T03:14:06.935Z,8.83
2022-11-27T03:16:42.252Z,8.70
2022-11-27T03:19:19.855Z,9.40
2022-11-27T03:21:51.870Z,8.63
2022-11-27T03:24:20.686Z,8.50
2022-11-27T03:26:49.352Z,9.47
2022-11-27T03:29:21.207Z,10.07
2022-11-27T03:31:51.907Z,8.50
2022-11-27T03:34:20.607Z,9.67
2022-11-27T03:36:48.874Z,9.37
2022-11-27T03:39:17.183Z,8.53
2022-11-27T03:41:52.103Z,8.17
2022-11-27T03:44:29.105Z,8.13
2022-11-27T03:47:10.198Z,8.30
2022-11-27T03:49:53.300Z,7.57
2022-11-27T03:52:28.133Z,6.53
2022-11-27T03:55:02.728Z,5.57
2022-11-27T03:57:36.947Z,6.50
2022-11-27T04:00:08.142Z,6.00
2022-11-27T04:02:43.197Z,5.50
2022-11-27T04:05:12.015Z,5.77
2022-11-27T04:07:40.779Z,4.53
2022-11-27T04:10:11.658Z,4.10
2022-11-27T04:12:39.974Z,4.90
2022-11-27T04:15:09.082Z,4.90
2022-11-27T04:17:37.262Z,4.67
2022-11-27T04:20:09.128Z,5.20
2022-11-27T04:22:37.463Z,3.70
2022-11-27T04:25:06.390Z,3.90
2022-11-27T04:27:34.706Z,3.60
2022-11-27T04:30:02.899Z,4.43
2022-11-27T04:32:31.194Z,5.50
2022-11-27T04:34:59.431Z,5.50
2022-11-27T04:37:29.103Z,4.80
2022-11-27T04:39:57.244Z,5.80
2022-11-27T04:42:25.750Z,6.63
2022-11-27T04:44:53.887Z,5.70
2022-11-27T04:47:22.893Z,5.80
2022-11-27T04:49:51.150Z,6.20
2022-11-27T04:52:19.339Z,7.60
2022-11-27T04:54:49.331Z,7.80
2022-11-27T04:57:17.532Z,8.73
2022-11-27T04:59:45.726Z,7.93
2022-11-27T05:02:14.155Z,7.87
2022-11-27T05:04:42.819Z,8.13
2022-11-27T05:07:11.193Z,9.47
2022-11-27T05:09:39.607Z,9.70
2022-11-27T05:12:09.494Z,8.73
2022-11-27T05:14:38.383Z,9.40
2022-11-27T05:17:06.762Z,8.70
2022-11-27T05:19:34.912Z,8.27
2022-11-27T05:22:03.601Z,9.00
2022-11-27T05:24:32.500Z,10.30
2022-11-27T05:27:00.733Z,10.40
2022-11-27T05:29:30.497Z,9.30
2022-11-27T05:31:58.814Z,9.23
2022-11-27T05:34:27.497Z,8.60
2022-11-27T05:36:56.184Z,9.03
2022-11-27T05:39:24.486Z,9.53
2022-11-27T05:41:52.792Z,8.47
2022-11-27T05:44:20.987Z,8.23
2022-11-27T05:46:50.718Z,8.70
2022-11-27T05:49:18.956Z,9.03
2022-11-27T05:51:51.295Z,9.17
2022-11-27T05:54:19.872Z,8.60
2022-11-27T05:56:48.084Z,8.90
2022-11-27T05:59:16.283Z,8.10
2022-11-27T06:01:44.860Z,8.30
2022-11-27T06:04:14.543Z,8.37
2022-11-27T06:06:42.743Z,7.70
2022-11-27T06:09:13.155Z,7.90
2022-11-27T06:11:42.274Z,8.50
2022-11-27T06:14:11.178Z,7.90
2022-11-27T06:16:39.802Z,8.30
2022-11-27T06:19:08.915Z,6.53
2022-11-27T06:21:39.105Z,7.33
2022-11-27T06:24:07.959Z,6.27
2022-11-27T06:26:36.138Z,6.70
2022-11-27T06:29:05.004Z,8.90
2022-11-27T06:31:34.242Z,7.20
2022-11-27T06:34:03.449Z,7.33
2022-11-27T06:36:33.563Z,6.40
2022-11-27T06:39:04.173Z,6.60
2022-11-27T06:41:33.976Z,8.50
2022-11-27T06:44:02.694Z,8.20
2022-11-27T06:46:31.632Z,8.73
2022-11-27T06:49:00.745Z,8.43
2022-11-27T06:51:31.402Z,6.57
2022-11-27T06:54:02.584Z,7.53
2022-11-27T06:56:32.829Z,7.67
2022-11-27T06:59:02.711Z,8.60
2022-11-27T07:01:32.373Z,10.20
2022-11-27T07:04:02.214Z,16.47
2022-11-27T07:06:30.884Z,12.97
2022-11-27T07:08:59.167Z,12.07
2022-11-27T07:11:32.024Z,11.40
2022-11-27T07:14:01.873Z,8.23
2022-11-27T07:16:33.064Z,8.33
2022-11-27T07:19:02.935Z,9.30
2022-11-27T07:21:31.842Z,9.90
2022-11-27T07:24:00.109Z,9.03
2022-11-27T07:26:30.769Z,8.00
2022-11-27T07:28:59.519Z,7.70
2022-11-27T07:31:30.140Z,7.03
2022-11-27T07:33:58.815Z,6.47
2022-11-27T07:36:29.084Z,7.00
2022-11-27T07:38:58.046Z,6.27
2022-11-27T07:41:32.285Z,6.23
2022-11-27T07:44:04.133Z,6.57
2022-11-27T07:46:34.405Z,6.10
2022-11-27T07:49:02.618Z,6.77
2022-11-27T07:51:31.144Z,6.30
2022-11-27T07:54:01.075Z,7.67
2022-11-27T07:56:30.485Z,6.33
2022-11-27T07:58:58.997Z,6.90
2022-11-27T08:01:28.656Z,6.80
2022-11-27T08:03:57.026Z,6.77
2022-11-27T08:06:27.132Z,6.90
2022-11-27T08:08:56.923Z,6.87
2022-11-27T08:11:29.799Z,8.27
2022-11-27T08:14:00.892Z,7.27
2022-11-27T08:16:31.495Z,6.43
2022-11-27T08:19:00.532Z,6.90
2022-11-27T08:21:30.108Z,6.50
2022-11-27T08:23:58.361Z,7.43
2022-11-27T08:26:27.812Z,6.60
2022-11-27T08:28:56.625Z,7.30
2022-11-27T08:31:25.126Z,7.20
2022-11-27T08:33:55.216Z,8.17
2022-11-27T08:36:26.718Z,8.00
2022-11-27T08:38:55.338Z,7.13
2022-11-27T08:41:23.594Z,6.77
2022-11-27T08:43:51.860Z,5.20
2022-11-27T08:46:20.304Z,3.40
2022-11-27T08:48:48.805Z,3.03
2022-11-27T08:51:18.368Z,2.70
2022-11-27T08:53:46.950Z,3.70
2022-11-27T08:56:18.348Z,3.67
2022-11-27T08:58:47.766Z,3.43
2022-11-27T09:01:17.817Z,3.80
2022-11-27T09:03:46.513Z,3.80
2022-11-27T09:06:17.243Z,3.90
2022-11-27T09:08:47.459Z,4.37
2022-11-27T09:11:17.705Z,4.93
2022-11-27T09:13:46.287Z,4.13
2022-11-27T09:16:16.236Z,4.40
2022-11-27T09:18:46.100Z,5.07
2022-11-27T09:21:16.252Z,5.27
2022-11-27T09:23:46.127Z,5.53
2022-11-27T09:26:15.929Z,6.47
2022-11-27T09:28:45.202Z,5.80
2022-11-27T09:31:15.453Z,6.63
2022-11-27T09:33:44.352Z,5.83
2022-11-27T09:36:14.159Z,6.73
2022-11-27T09:38:43.602Z,4.97
2022-11-27T09:41:35.794Z,5.30
2022-11-27T09:44:17.273Z,5.07
2022-11-27T09:46:46.174Z,5.80
2022-11-27T09:49:18.992Z,4.67
2022-11-27T09:51:52.794Z,4.90
2022-11-27T09:54:25.838Z,5.90
2022-11-27T09:56:57.356Z,4.10
2022-11-27T09:59:34.683Z,5.60
2022-11-27T10:02:03.176Z,5.00
2022-11-27T10:04:50.945Z,5.50
2022-11-27T10:07:31.111Z,5.10
2022-11-27T10:10:12.166Z,5.33
2022-11-27T10:12:49.788Z,5.73
2022-11-27T10:15:36.191Z,4.90
2022-11-27T10:18:10.169Z,5.10
2022-11-27T10:20:44.635Z,5.17
2022-11-27T10:23:21.525Z,4.70
2022-11-27T10:25:51.993Z,4.40
2022-11-27T10:28:32.417Z,4.07
2022-11-27T10:31:05.853Z,4.00
2022-11-27T10:33:42.295Z,4.30
2022-11-27T10:36:16.313Z,4.37
2022-11-27T10:38:45.709Z,3.77
2022-11-27T10:41:47.789Z,5.00
2022-11-27T10:44:24.373Z,4.87
2022-11-27T10:46:56.334Z,5.53
2022-11-27T10:49:24.528Z,6.93
2022-11-27T10:51:52.702Z,4.80
2022-11-27T10:54:27.487Z,5.10
2022-11-27T10:57:13.616Z,4.97
2022-11-27T10:59:48.009Z,5.90
2022-11-27T11:02:31.702Z,5.93
2022-11-27T11:05:34.568Z,6.17
2022-11-27T11:08:04.772Z,6.80
2022-11-27T11:10:36.920Z,7.17
2022-11-27T11:13:18.020Z,4.77
2022-11-27T11:15:57.439Z,5.33
2022-11-27T11:18:27.607Z,6.00
2022-11-27T11:20:58.168Z,5.73
2022-11-27T11:23:32.869Z,5.57
2022-11-27T11:26:05.071Z,7.20
2022-11-27T11:28:39.490Z,6.70
2022-11-27T11:31:17.106Z,6.70
2022-11-27T11:33:54.133Z,5.70
2022-11-27T11:36:22.925Z,5.30
2022-11-27T11:38:51.978Z,5.70
2022-11-27T11:41:20.567Z,6.17
2022-11-27T11:43:56.924Z,6.07
2022-11-27T11:46:28.705Z,6.03
2022-11-27T11:49:00.913Z,5.90
2022-11-27T11:51:44.663Z,6.10
2022-11-27T11:54:32.575Z,6.37
2022-11-27T11:57:04.234Z,5.33
2022-11-27T11:59:45.361Z,6.13
2022-11-27T12:02:40.603Z,5.80
2022-11-27T12:05:32.769Z,6.47
2022-11-27T12:08:28.567Z,6.40
2022-11-27T12:11:03.742Z,6.67
2022-11-27T12:13:45.441Z,6.07
2022-11-27T12:16:19.034Z,6.80
2022-11-27T12:19:01.463Z,6.30
2022-11-27T12:21:39.850Z,6.97
2022-11-27T12:24:24.447Z,6.80
2022-11-27T12:27:02.422Z,6.03
2022-11-27T12:29:53.956Z,6.40
2022-11-27T12:32:40.662Z,6.03
2022-11-27T12:35:31.223Z,5.10
2022-11-27T12:38:20.158Z,5.60
2022-11-27T12:41:12.601Z,6.33
2022-11-27T12:43:45.307Z,5.73
2022-11-27T12:46:19.955Z,5.50
2022-11-27T12:48:54.727Z,5.40
2022-11-27T12:51:28.986Z,5.53
2022-11-27T12:54:03.584Z,5.37
2022-11-27T12:56:37.213Z,5.93
2022-11-27T12:59:16.094Z,5.30
2022-11-27T13:01:48.261Z,7.03
2022-11-27T13:04:23.652Z,6.30
2022-11-27T13:06:59.462Z,5.60
2022-11-27T13:09:38.957Z,6.60
2022-11-27T13:12:08.417Z,5.83
2022-11-27T13:14:39.207Z,7.70
2022-11-27T13:17:16.311Z,6.70
2022-11-27T13:19:47.169Z,6.40
2022-11-27T13:22:27.650Z,7.80
2022-11-27T13:24:56.949Z,8.10
2022-11-27T13:27:28.257Z,7.80
2022-11-27T13:29:59.822Z,7.53
2022-11-27T13:32:31.782Z,7.77
2022-11-27T13:35:04.301Z,6.60
2022-11-27T13:37:36.997Z,7.47
2022-11-27T13:40:07.723Z,7.83
2022-11-27T13:42:37.897Z,7.40
2022-11-27T13:45:11.068Z,7.00
2022-11-27T13:47:42.547Z,7.20
2022-11-27T13:50:13.523Z,6.83
2022-11-27T13:52:57.413Z,5.70
2022-11-27T13:55:28.774Z,6.87
2022-11-27T13:57:59.419Z,6.70
2022-11-27T14:00:37.513Z,5.87
2022-11-27T14:03:06.472Z,6.30
2022-11-27T14:05:41.297Z,6.07
2022-11-27T14:08:24.151Z,5.37
2022-11-27T14:10:59.281Z,5.40
2022-11-27T14:13:40.444Z,6.10
2022-11-27T14:16:24.767Z,5.93
2022-11-27T14:18:54.778Z,5.40
2022-11-27T14:21:26.863Z,5.90
2022-11-27T14:23:56.365Z,5.77
2022-11-27T14:26:26.352Z,6.80
2022-11-27T14:28:56.635Z,6.60
2022-11-27T14:31:29.133Z,6.50
2022-11-27T14:34:14.905Z,6.40
2022-11-27T14:36:44.856Z,7.00
2022-11-27T14:39:24.316Z,6.83
2022-11-27T14:42:00.371Z,6.63
2022-11-27T14:44:29.422Z,8.40
2022-11-27T14:47:00.487Z,9.53
2022-11-27T14:49:30.837Z,9.43
2022-11-27T14:52:02.348Z,9.57
2022-11-27T14:54:35.599Z,10.10
2022-11-27T14:57:05.118Z,12.83
2022-11-27T14:59:33.660Z,9.93
2022-11-27T15:02:04.253Z,8.40
2022-11-27T15:04:37.011Z,8.50
2022-11-27T15:07:08.126Z,8.03
2022-11-27T15:09:38.143Z,7.77
2022-11-27T15:12:16.331Z,11.40
2022-11-27T15:14:48.089Z,13.30
2022-11-27T15:17:21.245Z,8.97
2022-11-27T15:19:49.510Z,8.23
2022-11-27T15:22:18.994Z,7.50
2022-11-27T15:24:59.089Z,7.67
2022-11-27T15:27:28.422Z,8.03
2022-11-27T15:30:12.914Z,8.77
2022-11-27T15:32:52.441Z,7.40
2022-11-27T15:35:27.310Z,7.93
2022-11-27T15:37:57.446Z,10.87
2022-11-27T15:40:31.697Z,25.33
2022-11-27T15:42:59.818Z,18.20
2022-11-27T15:45:31.799Z,17.60
2022-11-27T15:48:01.709Z,15.57
2022-11-27T15:50:30.856Z,18.27
2022-11-27T15:53:00.868Z,11.70
2022-11-27T15:55:30.921Z,9.57
2022-11-27T15:57:59.074Z,10.00
2022-11-27T16:00:27.450Z,8.60
2022-11-27T16:02:56.315Z,8.30
2022-11-27T16:05:24.376Z,7.33
2022-11-27T16:07:55.455Z,7.40
2022-11-27T16:10:23.906Z,8.13
2022-11-27T16:12:55.425Z,8.13
2022-11-27T16:15:26.630Z,9.27
2022-11-27T16:17:58.388Z,11.60
2022-11-27T16:20:27.457Z,9.83
2022-11-27T16:22:55.627Z,10.43
2022-11-27T16:25:25.208Z,10.70
2022-11-27T16:27:59.359Z,11.53
2022-11-27T16:30:30.574Z,11.33
2022-11-27T16:32:59.208Z,13.43
2022-11-27T16:35:27.631Z,11.03
2022-11-27T16:37:55.826Z,11.37
2022-11-27T16:40:24.191Z,8.90
2022-11-27T16:42:52.448Z,10.63
2022-11-27T16:45:22.069Z,13.90
2022-11-27T16:47:50.645Z,12.90
2022-11-27T16:50:19.222Z,16.63
2022-11-27T16:52:53.939Z,13.03
2022-11-27T16:55:23.105Z,10.63
2022-11-27T16:57:51.886Z,9.57
2022-11-27T17:00:22.333Z,9.57
2022-11-27T17:02:51.175Z,11.70
2022-11-27T17:05:19.850Z,12.13
2022-11-27T17:07:48.050Z,15.43
2022-11-27T17:10:16.437Z,18.63
2022-11-27T17:12:44.559Z,16.63
2022-11-27T17:15:13.228Z,12.00
2022-11-27T17:17:43.433Z,11.40
2022-11-27T17:20:12.017Z,12.40
2022-11-27T17:22:40.311Z,12.73
2022-11-27T17:25:11.233Z,12.80
2022-11-27T17:27:39.969Z,12.87
2022-11-27T17:30:10.408Z,12.07
2022-11-27T17:32:38.698Z,11.37
2022-11-27T17:35:09.506Z,9.90
2022-11-27T17:37:37.753Z,10.00
2022-11-27T17:40:07.202Z,11.00
2022-11-27T17:42:35.509Z,11.50
2022-11-27T17:45:03.817Z,15.00
2022-11-27T17:47:33.283Z,15.20
2022-11-27T17:50:01.863Z,15.20
2022-11-27T17:52:31.652Z,16.27
2022-11-27T17:55:00.264Z,15.77
2022-11-27T17:57:28.607Z,14.63
2022-11-27T17:59:56.811Z,14.73
2022-11-27T18:02:25.211Z,14.80
2022-11-27T18:04:53.642Z,13.00
2022-11-27T18:07:22.113Z,10.90
2022-11-27T18:09:54.248Z,9.90
2022-11-27T18:12:22.622Z,8.83
2022-11-27T18:14:56.513Z,8.83
2022-11-27T18:17:29.017Z,8.20
2022-11-27T18:19:59.201Z,11.90
2022-11-27T18:22:27.490Z,11.03
2022-11-27T18:24:57.086Z,10.83
2022-11-27T18:27:25.315Z,11.10
2022-11-27T18:29:53.528Z,26.07
2022-11-27T18:32:22.942Z,35.60
2022-11-27T18:34:54.562Z,16.40
2022-11-27T18:37:23.502Z,9.93
2022-11-27T18:39:51.909Z,9.37
2022-11-27T18:42:21.806Z,11.23
2022-11-27T18:44:49.909Z,10.80
2022-11-27T18:47:19.035Z,11.50
2022-11-27T18:49:49.461Z,11.63
2022-11-27T18:52:17.873Z,10.50
2022-11-27T18:54:46.930Z,11.87
2022-11-27T18:57:15.718Z,10.43
2022-11-27T18:59:48.023Z,16.40
2022-11-27T19:02:17.173Z,17.63
2022-11-27T19:04:45.632Z,17.53
2022-11-27T19:07:14.260Z,17.07
2022-11-27T19:09:44.268Z,18.50
2022-11-27T19:12:13.864Z,20.60
2022-11-27T19:14:42.349Z,22.07
2022-11-27T19:17:12.110Z,22.00
2022-11-27T19:19:55.718Z,15.23
2022-11-27T19:22:24.133Z,14.00
2022-11-27T19:24:52.369Z,12.83
2022-11-27T19:27:20.688Z,12.30
2022-11-27T19:29:50.135Z,12.13
2022-11-27T19:32:20.309Z,11.93
2022-11-27T19:34:51.219Z,19.40
2022-11-27T19:37:33.452Z,14.50
2022-11-27T19:40:03.929Z,11.93
2022-11-27T19:42:32.659Z,14.07
2022-11-27T19:45:01.164Z,15.43
2022-11-27T19:47:31.135Z,14.30
2022-11-27T19:49:59.270Z,15.57
2022-11-27T19:52:27.711Z,16.60
2022-11-27T19:54:55.909Z,15.93
2022-11-27T19:57:25.091Z,16.90
2022-11-27T19:59:53.298Z,16.97
2022-11-27T20:02:24.265Z,16.97
2022-11-27T20:04:55.286Z,15.50
2022-11-27T20:07:24.008Z,16.07
2022-11-27T20:09:52.897Z,13.90
2022-11-27T20:12:21.594Z,13.77
2022-11-27T20:14:49.782Z,17.10
2022-11-27T20:17:19.473Z,16.90
2022-11-27T20:19:47.729Z,18.20
2022-11-27T20:22:17.492Z,20.67
2022-11-27T20:25:11.211Z,12.87
2022-11-27T20:27:35.642Z,11.97
2022-11-27T20:30:06.039Z,12.07
2022-11-27T20:32:34.875Z,10.60
2022-11-27T20:35:04.168Z,9.40
2022-11-27T20:37:34.076Z,10.10
2022-11-27T20:40:02.316Z,9.70
2022-11-27T20:42:30.586Z,9.20
2022-11-27T20:44:58.731Z,9.97
2022-11-27T20:47:26.988Z,10.27
2022-11-27T20:49:55.305Z,9.83
2022-11-27T20:52:24.070Z,11.17
2022-11-27T20:54:55.076Z,10.03
2022-11-27T20:57:24.110Z,9.80
2022-11-27T20:59:52.295Z,11.80
2022-11-27T21:02:20.596Z,11.93
2022-11-27T21:04:48.854Z,17.97
2022-11-27T21:07:17.125Z,20.13
2022-11-27T21:09:45.473Z,10.23
2022-11-27T21:12:16.754Z,10.57
2022-11-27T21:14:45.939Z,10.80
2022-11-27T21:17:14.911Z,10.33
2022-11-27T21:19:44.015Z,9.20
2022-11-27T21:22:12.322Z,10.53
2022-11-27T21:24:40.487Z,10.13
2022-11-27T21:27:09.983Z,9.77
2022-11-27T21:29:40.069Z,10.90
2022-11-27T21:32:08.525Z,9.90
2022-11-27T21:34:37.627Z,11.80
2022-11-27T21:37:06.148Z,11.80
2022-11-27T21:39:36.189Z,12.00
2022-11-27T21:42:05.330Z,11.80
2022-11-27T21:44:34.067Z,12.47
2022-11-27T21:47:05.995Z,11.93
2022-11-27T21:49:34.177Z,11.40
2022-11-27T21:52:02.510Z,11.20
2022-11-27T21:54:36.161Z,13.70
2022-11-27T21:57:04.416Z,14.10
2022-11-27T21:59:32.731Z,19.77
2022-11-27T22:02:01.014Z,13.70
2022-11-27T22:04:30.647Z,10.70
2022-11-27T22:06:59.012Z,12.37
2022-11-27T22:09:30.190Z,10.00
2022-11-27T22:11:58.379Z,10.30
2022-11-27T22:14:26.769Z,9.77
2022-11-27T22:16:56.295Z,10.90
2022-11-27T22:19:24.584Z,9.63
2022-11-27T22:21:54.452Z,10.60
2022-11-27T22:24:22.649Z,8.97
2022-11-27T22:26:53.732Z,9.20
2022-11-27T22:29:22.114Z,8.53
2022-11-27T22:31:50.383Z,8.57
2022-11-27T22:34:18.735Z,9.13
2022-11-27T22:36:47.788Z,10.20
2022-11-27T22:39:17.622Z,9.50
2022-11-27T22:41:47.560Z,10.70
2022-11-27T22:44:18.547Z,11.27
2022-11-27T22:46:48.478Z,13.20
2022-11-27T22:49:18.721Z,9.80
2022-11-27T22:51:47.711Z,8.93
2022-11-27T22:54:18.599Z,9.63
2022-11-27T22:56:47.281Z,9.03
2022-11-27T22:59:34.129Z,9.90
2022-11-27T23:02:06.477Z,9.77
2022-11-27T23:04:35.706Z,10.60
2022-11-27T23:07:04.208Z,10.17
2022-11-27T23:09:33.824Z,12.63
2022-11-27T23:12:01.942Z,12.10
2022-11-27T23:14:30.339Z,11.13
2022-11-27T23:16:58.531Z,10.70
2022-11-27T23:19:26.935Z,10.63
2022-11-27T23:21:55.345Z,9.70
2022-11-27T23:24:23.562Z,8.80
2022-11-27T23:26:53.327Z,8.47
2022-11-27T23:29:21.809Z,9.10
2022-11-27T23:31:50.025Z,9.13
2022-11-27T23:34:18.304Z,11.10
2022-11-27T23:36:46.472Z,10.40
2022-11-27T23:39:15.230Z,10.50
2022-11-27T23:41:43.781Z,12.10
2022-11-27T23:44:13.335Z,11.00
2022-11-27T23:46:41.728Z,12.00
2022-11-27T23:49:09.877Z,12.93
2022-11-27T23:51:38.156Z,12.93
2022-11-27T23:54:09.952Z,12.67
2022-11-27T23:56:39.288Z,11.50
2022-11-27T23:59:08.298Z,12.47
